MXD393 WIII-WMKK
Flight info
| Callsign | MXD393 |
|---|---|
| Flight time | 1h 48m |
| Altitude | 34000 |
| Route | DOLTA A585 PKU/N0471F350 N633 SALAX SALAX1J |
| Aircraft | B738/M-SDE2E3FGHIRWXY/LB1 |
Departure
| Time | 2026-05-06 12:18 |
|---|---|
| Airport | Soekarno-Hatta International Airport (WIII) |
Arrival
| Time | 2026-05-06 14:06 |
|---|---|
| Airport | Kuala Lumpur International Airport (WMKK) |
| Time | Latitude | Longitude | Altitude | Speed | Heading |
|---|---|---|---|---|---|
| 2026-05-06 11:37 | -6.12161 | 106.65667 | 37 ft | 0 kts | 280° |
| 2026-05-06 12:07 | -6.12162 | 106.65672 | 37 ft | 4 kts | 280° |
| 2026-05-06 12:07 | -6.12168 | 106.65699 | 37 ft | 4 kts | 284° |
| 2026-05-06 12:08 | -6.12175 | 106.65725 | 33 ft | 4 kts | 290° |
| 2026-05-06 12:08 | -6.12186 | 106.65749 | 36 ft | 4 kts | 304° |
| 2026-05-06 12:08 | -6.12203 | 106.65765 | 37 ft | 4 kts | 352° |
| 2026-05-06 12:08 | -6.12209 | 106.65766 | 37 ft | 1 kts | 5° |
| 2026-05-06 12:11 | -6.12208 | 106.65766 | 37 ft | 1 kts | 5° |
| 2026-05-06 12:11 | -6.12188 | 106.65767 | 37 ft | 6 kts | 0° |
| 2026-05-06 12:12 | -6.12116 | 106.65758 | 37 ft | 14 kts | 345° |
| 2026-05-06 12:12 | -6.12005 | 106.65717 | 37 ft | 19 kts | 337° |
| 2026-05-06 12:12 | -6.11865 | 106.65660 | 35 ft | 25 kts | 339° |
| 2026-05-06 12:12 | -6.11737 | 106.65609 | 37 ft | 19 kts | 337° |
| 2026-05-06 12:13 | -6.11646 | 106.65537 | 37 ft | 18 kts | 275° |
| 2026-05-06 12:13 | -6.11691 | 106.65400 | 37 ft | 24 kts | 248° |
| 2026-05-06 12:13 | -6.11750 | 106.65250 | 38 ft | 21 kts | 249° |
| 2026-05-06 12:13 | -6.11810 | 106.65101 | 38 ft | 24 kts | 248° |
| 2026-05-06 12:14 | -6.11879 | 106.64937 | 37 ft | 27 kts | 243° |
| 2026-05-06 12:14 | -6.11937 | 106.64787 | 38 ft | 26 kts | 249° |
| 2026-05-06 12:14 | -6.12002 | 106.64619 | 38 ft | 25 kts | 250° |
| 2026-05-06 12:14 | -6.12068 | 106.64462 | 37 ft | 26 kts | 245° |
| 2026-05-06 12:15 | -6.12134 | 106.64291 | 36 ft | 28 kts | 247° |
| 2026-05-06 12:15 | -6.12201 | 106.64125 | 38 ft | 25 kts | 248° |
| 2026-05-06 12:15 | -6.12256 | 106.63980 | 38 ft | 20 kts | 256° |
| 2026-05-06 12:15 | -6.12212 | 106.63895 | 40 ft | 0 kts | 334° |
| 2026-05-06 12:16 | -6.12206 | 106.63893 | 40 ft | 3 kts | 338° |
| 2026-05-06 12:16 | -6.12157 | 106.63894 | 41 ft | 12 kts | 19° |
| 2026-05-06 12:17 | -6.12070 | 106.63962 | 39 ft | 22 kts | 67° |
| 2026-05-06 12:17 | -6.11947 | 106.64259 | 39 ft | 85 kts | 69° |
| 2026-05-06 12:17 | -6.11635 | 106.65040 | 42 ft | 158 kts | 68° |
| 2026-05-06 12:17 | -6.11184 | 106.66125 | 497 ft | 188 kts | 66° |
| 2026-05-06 12:18 | -6.10703 | 106.67355 | 1095 ft | 205 kts | 69° |
| 2026-05-06 12:18 | -6.10103 | 106.68445 | 2088 ft | 198 kts | 45° |
| 2026-05-06 12:18 | -6.08958 | 106.69142 | 2572 ft | 216 kts | 27° |
| 2026-05-06 12:18 | -6.07545 | 106.69838 | 2794 ft | 237 kts | 29° |
| 2026-05-06 12:19 | -6.06209 | 106.70565 | 3302 ft | 240 kts | 31° |
| 2026-05-06 12:19 | -6.04793 | 106.71403 | 3855 ft | 242 kts | 33° |
| 2026-05-06 12:19 | -6.03446 | 106.72242 | 4370 ft | 247 kts | 34° |
| 2026-05-06 12:19 | -6.02034 | 106.73142 | 4711 ft | 262 kts | 34° |
| 2026-05-06 12:20 | -6.00532 | 106.74104 | 4972 ft | 269 kts | 33° |
| 2026-05-06 12:20 | -5.98941 | 106.74684 | 4950 ft | 274 kts | 7° |
| 2026-05-06 12:20 | -5.97152 | 106.74474 | 5020 ft | 281 kts | 341° |
| 2026-05-06 12:20 | -5.95645 | 106.73505 | 5028 ft | 285 kts | 313° |
| 2026-05-06 12:21 | -5.94627 | 106.71929 | 5044 ft | 286 kts | 296° |
| 2026-05-06 12:21 | -5.93813 | 106.70158 | 5043 ft | 288 kts | 295° |
| 2026-05-06 12:21 | -5.93055 | 106.68454 | 5257 ft | 289 kts | 295° |
| 2026-05-06 12:21 | -5.92240 | 106.66649 | 5963 ft | 292 kts | 296° |
| 2026-05-06 12:22 | -5.91391 | 106.64799 | 6779 ft | 292 kts | 296° |
| 2026-05-06 12:22 | -5.90562 | 106.63008 | 7487 ft | 295 kts | 296° |
| 2026-05-06 12:22 | -5.89688 | 106.61124 | 8184 ft | 300 kts | 296° |
| 2026-05-06 12:22 | -5.88832 | 106.59289 | 8895 ft | 303 kts | 296° |
| 2026-05-06 12:23 | -5.87933 | 106.57362 | 9624 ft | 307 kts | 296° |
| 2026-05-06 12:23 | -5.87035 | 106.55437 | 10261 ft | 311 kts | 296° |
| 2026-05-06 12:23 | -5.86145 | 106.53530 | 10498 ft | 330 kts | 296° |
| 2026-05-06 12:23 | -5.85154 | 106.51405 | 10670 ft | 351 kts | 296° |
| 2026-05-06 12:24 | -5.84116 | 106.49180 | 11002 ft | 363 kts | 296° |
| 2026-05-06 12:24 | -5.83047 | 106.46889 | 11536 ft | 368 kts | 296° |
| 2026-05-06 12:24 | -5.81983 | 106.44600 | 12137 ft | 371 kts | 296° |
| 2026-05-06 12:24 | -5.80889 | 106.42247 | 12745 ft | 375 kts | 295° |
| 2026-05-06 12:25 | -5.79793 | 106.39887 | 13324 ft | 378 kts | 295° |
| 2026-05-06 12:25 | -5.78683 | 106.37494 | 13863 ft | 382 kts | 295° |
| 2026-05-06 12:25 | -5.77590 | 106.35135 | 14017 ft | 384 kts | 295° |
| 2026-05-06 12:25 | -5.76479 | 106.32739 | 14024 ft | 383 kts | 295° |
| 2026-05-06 12:26 | -5.75367 | 106.30346 | 14031 ft | 382 kts | 295° |
| 2026-05-06 12:26 | -5.74161 | 106.28007 | 14034 ft | 382 kts | 307° |
| 2026-05-06 12:26 | -5.72297 | 106.26158 | 14106 ft | 383 kts | 327° |
| 2026-05-06 12:26 | -5.70004 | 106.24785 | 14656 ft | 383 kts | 332° |
| 2026-05-06 12:27 | -5.67697 | 106.23510 | 15267 ft | 382 kts | 333° |
| 2026-05-06 12:27 | -5.65375 | 106.22241 | 15827 ft | 384 kts | 333° |
| 2026-05-06 12:27 | -5.63081 | 106.20980 | 16338 ft | 386 kts | 332° |
| 2026-05-06 12:27 | -5.60720 | 106.19668 | 16853 ft | 389 kts | 332° |
| 2026-05-06 12:28 | -5.58380 | 106.18358 | 17369 ft | 392 kts | 332° |
| 2026-05-06 12:28 | -5.56024 | 106.17031 | 17878 ft | 394 kts | 332° |
| 2026-05-06 12:28 | -5.53692 | 106.15714 | 18335 ft | 396 kts | 332° |
| 2026-05-06 12:28 | -5.51292 | 106.14358 | 18747 ft | 399 kts | 332° |
| 2026-05-06 12:29 | -5.48956 | 106.13038 | 19137 ft | 401 kts | 332° |
| 2026-05-06 12:29 | -5.46594 | 106.11700 | 19537 ft | 404 kts | 332° |
| 2026-05-06 12:29 | -5.44223 | 106.10358 | 19920 ft | 406 kts | 332° |
| 2026-05-06 12:29 | -5.41786 | 106.08982 | 20303 ft | 409 kts | 332° |
| 2026-05-06 12:30 | -5.39455 | 106.07668 | 20670 ft | 411 kts | 332° |
| 2026-05-06 12:30 | -5.37868 | 106.06772 | 20916 ft | 413 kts | 332° |
| 2026-05-06 12:30 | -5.34577 | 106.04916 | 21382 ft | 416 kts | 332° |
| 2026-05-06 12:30 | -5.32933 | 106.03989 | 21622 ft | 418 kts | 332° |
| 2026-05-06 12:31 | -5.29619 | 106.02120 | 22078 ft | 421 kts | 332° |
| 2026-05-06 12:31 | -5.27942 | 106.01174 | 22303 ft | 423 kts | 332° |
| 2026-05-06 12:31 | -5.25514 | 105.99803 | 22629 ft | 425 kts | 332° |
| 2026-05-06 12:31 | -5.23164 | 105.98475 | 22856 ft | 425 kts | 332° |
| 2026-05-06 12:32 | -5.20618 | 105.97036 | 22840 ft | 428 kts | 332° |
| 2026-05-06 12:32 | -5.18098 | 105.95611 | 22855 ft | 427 kts | 332° |
| 2026-05-06 12:32 | -5.15647 | 105.94226 | 22856 ft | 427 kts | 332° |
| 2026-05-06 12:32 | -5.13074 | 105.92775 | 22853 ft | 427 kts | 332° |
| 2026-05-06 12:33 | -5.10492 | 105.91316 | 22912 ft | 432 kts | 332° |
| 2026-05-06 12:33 | -5.07884 | 105.89834 | 23212 ft | 434 kts | 332° |
| 2026-05-06 12:33 | -5.05301 | 105.88364 | 23601 ft | 433 kts | 332° |
| 2026-05-06 12:33 | -5.02670 | 105.86864 | 23903 ft | 435 kts | 332° |
| 2026-05-06 12:34 | -5.00072 | 105.85382 | 24158 ft | 437 kts | 332° |
| 2026-05-06 12:34 | -4.97410 | 105.83864 | 24421 ft | 439 kts | 332° |
| 2026-05-06 12:34 | -4.94745 | 105.82345 | 24689 ft | 441 kts | 332° |
| 2026-05-06 12:34 | -4.92090 | 105.80831 | 24961 ft | 442 kts | 332° |
| 2026-05-06 12:35 | -4.89437 | 105.79319 | 25226 ft | 444 kts | 332° |
| 2026-05-06 12:35 | -4.86768 | 105.77798 | 25495 ft | 446 kts | 332° |
| 2026-05-06 12:35 | -4.84059 | 105.76254 | 25737 ft | 447 kts | 332° |
| 2026-05-06 12:35 | -4.81496 | 105.74794 | 25981 ft | 449 kts | 332° |
| 2026-05-06 12:36 | -4.78887 | 105.73308 | 26222 ft | 451 kts | 332° |
| 2026-05-06 12:36 | -4.76204 | 105.71779 | 26477 ft | 452 kts | 332° |
| 2026-05-06 12:36 | -4.73506 | 105.70242 | 26669 ft | 455 kts | 332° |
| 2026-05-06 12:36 | -4.70736 | 105.68664 | 26910 ft | 457 kts | 332° |
| 2026-05-06 12:37 | -4.68023 | 105.67120 | 27159 ft | 458 kts | 332° |
| 2026-05-06 12:37 | -4.65258 | 105.65545 | 27404 ft | 459 kts | 332° |
| 2026-05-06 12:37 | -4.62478 | 105.63961 | 27636 ft | 461 kts | 332° |
| 2026-05-06 12:37 | -4.59692 | 105.62375 | 27900 ft | 461 kts | 332° |
| 2026-05-06 12:38 | -4.56887 | 105.60779 | 28139 ft | 462 kts | 332° |
| 2026-05-06 12:38 | -4.54122 | 105.59204 | 28350 ft | 464 kts | 332° |
| 2026-05-06 12:38 | -4.51332 | 105.57616 | 28554 ft | 466 kts | 332° |
| 2026-05-06 12:38 | -4.48525 | 105.56019 | 28753 ft | 467 kts | 332° |
| 2026-05-06 12:39 | -4.45723 | 105.54424 | 29010 ft | 467 kts | 332° |
| 2026-05-06 12:39 | -4.42894 | 105.52814 | 29350 ft | 466 kts | 332° |
| 2026-05-06 12:39 | -4.40083 | 105.51214 | 29708 ft | 464 kts | 332° |
| 2026-05-06 12:39 | -4.37308 | 105.49634 | 29955 ft | 465 kts | 332° |
| 2026-05-06 12:40 | -4.34514 | 105.48044 | 30166 ft | 465 kts | 332° |
| 2026-05-06 12:40 | -4.31701 | 105.46444 | 30455 ft | 464 kts | 332° |
| 2026-05-06 12:40 | -4.28910 | 105.44856 | 30768 ft | 462 kts | 332° |
| 2026-05-06 12:40 | -4.26117 | 105.43267 | 31075 ft | 460 kts | 332° |
| 2026-05-06 12:41 | -4.23383 | 105.41712 | 31337 ft | 460 kts | 332° |
| 2026-05-06 12:41 | -4.20600 | 105.40129 | 31602 ft | 459 kts | 332° |
| 2026-05-06 12:41 | -4.17829 | 105.38553 | 31890 ft | 458 kts | 332° |
| 2026-05-06 12:41 | -4.15063 | 105.36980 | 32193 ft | 457 kts | 331° |
| 2026-05-06 12:42 | -4.12321 | 105.35420 | 32476 ft | 456 kts | 331° |
| 2026-05-06 12:42 | -4.09577 | 105.33859 | 32750 ft | 455 kts | 331° |
| 2026-05-06 12:42 | -4.06829 | 105.32297 | 33033 ft | 455 kts | 331° |
| 2026-05-06 12:42 | -4.04091 | 105.30740 | 33330 ft | 453 kts | 331° |
| 2026-05-06 12:43 | -4.01345 | 105.29177 | 33642 ft | 452 kts | 331° |
| 2026-05-06 12:43 | -3.98709 | 105.27677 | 33862 ft | 452 kts | 331° |
| 2026-05-06 12:43 | -3.93280 | 105.24591 | 33854 ft | 456 kts | 331° |
| 2026-05-06 12:44 | -3.87830 | 105.21508 | 33849 ft | 453 kts | 332° |
| 2026-05-06 12:44 | -3.82393 | 105.18456 | 33850 ft | 450 kts | 332° |
| 2026-05-06 12:45 | -3.77003 | 105.15428 | 33853 ft | 448 kts | 332° |
| 2026-05-06 12:46 | -3.68977 | 105.10913 | 33853 ft | 447 kts | 332° |
| 2026-05-06 12:46 | -3.63655 | 105.07917 | 33861 ft | 448 kts | 332° |
| 2026-05-06 12:47 | -3.58388 | 105.04955 | 33852 ft | 448 kts | 332° |
| 2026-05-06 12:47 | -3.53063 | 105.01960 | 33852 ft | 449 kts | 332° |
| 2026-05-06 12:48 | -3.47655 | 104.98919 | 33854 ft | 449 kts | 332° |
| 2026-05-06 12:48 | -3.42307 | 104.95910 | 33851 ft | 450 kts | 332° |
| 2026-05-06 12:49 | -3.37014 | 104.92931 | 33855 ft | 450 kts | 332° |
| 2026-05-06 12:49 | -3.31650 | 104.89910 | 33851 ft | 450 kts | 332° |
| 2026-05-06 12:50 | -3.26198 | 104.86843 | 33852 ft | 450 kts | 332° |
| 2026-05-06 12:50 | -3.20768 | 104.83789 | 33855 ft | 451 kts | 332° |
| 2026-05-06 12:51 | -3.15350 | 104.80742 | 33854 ft | 451 kts | 332° |
| 2026-05-06 12:51 | -3.09884 | 104.77669 | 33856 ft | 450 kts | 332° |
| 2026-05-06 12:52 | -3.04459 | 104.74618 | 33854 ft | 450 kts | 332° |
| 2026-05-06 12:52 | -2.98989 | 104.71542 | 33856 ft | 450 kts | 332° |
| 2026-05-06 12:53 | -2.93552 | 104.68482 | 33856 ft | 450 kts | 332° |
| 2026-05-06 12:53 | -2.88190 | 104.65376 | 33850 ft | 450 kts | 326° |
| 2026-05-06 12:54 | -2.83542 | 104.61247 | 33858 ft | 451 kts | 316° |
| 2026-05-06 12:54 | -2.79124 | 104.56854 | 33854 ft | 451 kts | 316° |
| 2026-05-06 12:55 | -2.74716 | 104.52487 | 33857 ft | 451 kts | 316° |
| 2026-05-06 12:55 | -2.70329 | 104.48179 | 33858 ft | 451 kts | 316° |
| 2026-05-06 12:56 | -2.65864 | 104.43821 | 33855 ft | 451 kts | 316° |
| 2026-05-06 12:56 | -2.61378 | 104.39449 | 33858 ft | 451 kts | 317° |
| 2026-05-06 12:57 | -2.56944 | 104.35130 | 33854 ft | 451 kts | 317° |
| 2026-05-06 12:57 | -2.52455 | 104.30756 | 33861 ft | 451 kts | 317° |
| 2026-05-06 12:58 | -2.47992 | 104.26408 | 33860 ft | 452 kts | 317° |
| 2026-05-06 12:58 | -2.43524 | 104.22055 | 33866 ft | 452 kts | 317° |
| 2026-05-06 12:59 | -2.39059 | 104.17705 | 33856 ft | 453 kts | 317° |
| 2026-05-06 12:59 | -2.34561 | 104.13324 | 33860 ft | 453 kts | 317° |
| 2026-05-06 13:00 | -2.30102 | 104.08980 | 33860 ft | 454 kts | 317° |
| 2026-05-06 13:00 | -2.25570 | 104.04567 | 33865 ft | 454 kts | 317° |
| 2026-05-06 13:01 | -2.21067 | 104.00182 | 33861 ft | 455 kts | 317° |
| 2026-05-06 13:01 | -2.16557 | 103.95791 | 33859 ft | 455 kts | 317° |
| 2026-05-06 13:02 | -2.12038 | 103.91390 | 33861 ft | 455 kts | 317° |
| 2026-05-06 13:02 | -2.07555 | 103.87026 | 33865 ft | 455 kts | 317° |
| 2026-05-06 13:03 | -2.03028 | 103.82620 | 33864 ft | 456 kts | 317° |
| 2026-05-06 13:03 | -1.98492 | 103.78204 | 33866 ft | 456 kts | 317° |
| 2026-05-06 13:04 | -1.93940 | 103.73773 | 33864 ft | 456 kts | 317° |
| 2026-05-06 13:04 | -1.89403 | 103.69358 | 33865 ft | 456 kts | 317° |
| 2026-05-06 13:05 | -1.84887 | 103.64963 | 33865 ft | 456 kts | 317° |
| 2026-05-06 13:05 | -1.80330 | 103.60529 | 33865 ft | 457 kts | 317° |
| 2026-05-06 13:06 | -1.75792 | 103.56113 | 33869 ft | 457 kts | 317° |
| 2026-05-06 13:06 | -1.71282 | 103.51726 | 33866 ft | 457 kts | 317° |
| 2026-05-06 13:07 | -1.66718 | 103.47286 | 33870 ft | 458 kts | 317° |
| 2026-05-06 13:07 | -1.62158 | 103.42849 | 33869 ft | 458 kts | 317° |
| 2026-05-06 13:08 | -1.57598 | 103.38413 | 33869 ft | 458 kts | 317° |
| 2026-05-06 13:08 | -1.53032 | 103.33972 | 33869 ft | 458 kts | 317° |
| 2026-05-06 13:09 | -1.48480 | 103.29544 | 33871 ft | 458 kts | 317° |
| 2026-05-06 13:09 | -1.43941 | 103.25130 | 33872 ft | 458 kts | 317° |
| 2026-05-06 13:10 | -1.39390 | 103.20705 | 33869 ft | 458 kts | 317° |
| 2026-05-06 13:10 | -1.34820 | 103.16260 | 33870 ft | 458 kts | 317° |
| 2026-05-06 13:11 | -1.30266 | 103.11831 | 33878 ft | 458 kts | 317° |
| 2026-05-06 13:11 | -1.25724 | 103.07415 | 33871 ft | 458 kts | 317° |
| 2026-05-06 13:12 | -1.21171 | 103.02987 | 33873 ft | 458 kts | 317° |
| 2026-05-06 13:12 | -1.16607 | 102.98549 | 33875 ft | 458 kts | 317° |
| 2026-05-06 13:13 | -1.12159 | 102.94223 | 33878 ft | 457 kts | 317° |
| 2026-05-06 13:13 | -1.07600 | 102.89791 | 33873 ft | 457 kts | 316° |
| 2026-05-06 13:14 | -1.03029 | 102.85357 | 33877 ft | 457 kts | 317° |
| 2026-05-06 13:14 | -0.98492 | 102.80961 | 33874 ft | 457 kts | 317° |
| 2026-05-06 13:15 | -0.94709 | 102.77296 | 33872 ft | 457 kts | 317° |
| 2026-05-06 13:15 | -0.89403 | 102.72152 | 33871 ft | 457 kts | 317° |
| 2026-05-06 13:16 | -0.85591 | 102.68456 | 33869 ft | 457 kts | 317° |
| 2026-05-06 13:16 | -0.80306 | 102.63333 | 33869 ft | 457 kts | 317° |
| 2026-05-06 13:17 | -0.76522 | 102.59664 | 33859 ft | 457 kts | 317° |
| 2026-05-06 13:17 | -0.71925 | 102.55208 | 33859 ft | 456 kts | 317° |
| 2026-05-06 13:18 | -0.67414 | 102.50835 | 33860 ft | 456 kts | 317° |
| 2026-05-06 13:18 | -0.62866 | 102.46427 | 33852 ft | 456 kts | 317° |
| 2026-05-06 13:19 | -0.58308 | 102.42008 | 33849 ft | 456 kts | 317° |
| 2026-05-06 13:19 | -0.53804 | 102.37642 | 33848 ft | 456 kts | 317° |
| 2026-05-06 13:20 | -0.49277 | 102.33255 | 33850 ft | 456 kts | 317° |
| 2026-05-06 13:20 | -0.44802 | 102.28917 | 33849 ft | 456 kts | 317° |
| 2026-05-06 13:21 | -0.40266 | 102.24520 | 33843 ft | 456 kts | 317° |
| 2026-05-06 13:21 | -0.35783 | 102.20175 | 33839 ft | 456 kts | 317° |
| 2026-05-06 13:22 | -0.31259 | 102.15791 | 33843 ft | 457 kts | 317° |
| 2026-05-06 13:22 | -0.26771 | 102.11441 | 33836 ft | 457 kts | 317° |
| 2026-05-06 13:23 | -0.22233 | 102.07042 | 33836 ft | 458 kts | 317° |
| 2026-05-06 13:23 | -0.17713 | 102.02662 | 33841 ft | 458 kts | 316° |
| 2026-05-06 13:24 | -0.13156 | 101.98246 | 33827 ft | 458 kts | 316° |
| 2026-05-06 13:24 | -0.08587 | 101.93817 | 33828 ft | 458 kts | 316° |
| 2026-05-06 13:25 | -0.04132 | 101.89499 | 33827 ft | 458 kts | 316° |
| 2026-05-06 13:25 | 0.00426 | 101.85081 | 33823 ft | 458 kts | 316° |
| 2026-05-06 13:26 | 0.04972 | 101.80676 | 33819 ft | 458 kts | 316° |
| 2026-05-06 13:26 | 0.09530 | 101.76258 | 33818 ft | 457 kts | 316° |
| 2026-05-06 13:27 | 0.13994 | 101.71932 | 33819 ft | 456 kts | 316° |
| 2026-05-06 13:27 | 0.18455 | 101.67608 | 33820 ft | 455 kts | 316° |
| 2026-05-06 13:28 | 0.22925 | 101.63275 | 33817 ft | 455 kts | 316° |
| 2026-05-06 13:28 | 0.27423 | 101.58915 | 33822 ft | 454 kts | 316° |
| 2026-05-06 13:29 | 0.31933 | 101.54543 | 33824 ft | 454 kts | 316° |
| 2026-05-06 13:29 | 0.36365 | 101.50245 | 33828 ft | 454 kts | 316° |
| 2026-05-06 13:30 | 0.40964 | 101.46094 | 33804 ft | 453 kts | 330° |
| 2026-05-06 13:30 | 0.43609 | 101.44896 | 33845 ft | 449 kts | 345° |
| 2026-05-06 13:30 | 0.46646 | 101.44373 | 33824 ft | 447 kts | 0° |
| 2026-05-06 13:31 | 0.52806 | 101.44755 | 33838 ft | 446 kts | 6° |
| 2026-05-06 13:31 | 0.58986 | 101.45262 | 33830 ft | 447 kts | 6° |
| 2026-05-06 13:32 | 0.65164 | 101.45726 | 33821 ft | 449 kts | 5° |
| 2026-05-06 13:32 | 0.71394 | 101.46159 | 33809 ft | 450 kts | 5° |
| 2026-05-06 13:33 | 0.77513 | 101.46573 | 33534 ft | 445 kts | 5° |
| 2026-05-06 13:33 | 0.80571 | 101.46779 | 33277 ft | 436 kts | 5° |
| 2026-05-06 13:33 | 0.83584 | 101.46982 | 33018 ft | 429 kts | 5° |
| 2026-05-06 13:33 | 0.86413 | 101.47173 | 32771 ft | 422 kts | 5° |
| 2026-05-06 13:34 | 0.89325 | 101.47370 | 32516 ft | 415 kts | 5° |
| 2026-05-06 13:34 | 0.92113 | 101.47559 | 32266 ft | 407 kts | 6° |
| 2026-05-06 13:34 | 0.94872 | 101.47746 | 31958 ft | 397 kts | 6° |
| 2026-05-06 13:34 | 0.97574 | 101.47929 | 31608 ft | 389 kts | 6° |
| 2026-05-06 13:35 | 1.00173 | 101.48105 | 31273 ft | 381 kts | 6° |
| 2026-05-06 13:35 | 1.02762 | 101.48280 | 30939 ft | 373 kts | 6° |
| 2026-05-06 13:35 | 1.05259 | 101.48450 | 30623 ft | 370 kts | 6° |
| 2026-05-06 13:35 | 1.07783 | 101.48624 | 30324 ft | 380 kts | 6° |
| 2026-05-06 13:36 | 1.10418 | 101.48806 | 29976 ft | 394 kts | 6° |
| 2026-05-06 13:36 | 1.13151 | 101.48994 | 29521 ft | 396 kts | 6° |
| 2026-05-06 13:36 | 1.15837 | 101.49176 | 29114 ft | 387 kts | 6° |
| 2026-05-06 13:36 | 1.18405 | 101.49348 | 28740 ft | 378 kts | 6° |
| 2026-05-06 13:37 | 1.21007 | 101.49523 | 28379 ft | 369 kts | 6° |
| 2026-05-06 13:37 | 1.23449 | 101.49687 | 28041 ft | 362 kts | 6° |
| 2026-05-06 13:37 | 1.24806 | 101.49779 | 27864 ft | 358 kts | 6° |
| 2026-05-06 13:38 | 1.27260 | 101.49945 | 27521 ft | 351 kts | 6° |
| 2026-05-06 13:38 | 1.29688 | 101.50110 | 27201 ft | 348 kts | 6° |
| 2026-05-06 13:38 | 1.32082 | 101.50274 | 26896 ft | 355 kts | 6° |
| 2026-05-06 13:38 | 1.34596 | 101.50449 | 26558 ft | 371 kts | 6° |
| 2026-05-06 13:39 | 1.37250 | 101.50632 | 26177 ft | 376 kts | 6° |
| 2026-05-06 13:39 | 1.39798 | 101.50804 | 25805 ft | 368 kts | 6° |
| 2026-05-06 13:39 | 1.42313 | 101.50973 | 25451 ft | 361 kts | 6° |
| 2026-05-06 13:39 | 1.44789 | 101.51139 | 25105 ft | 353 kts | 6° |
| 2026-05-06 13:40 | 1.47217 | 101.51303 | 24765 ft | 346 kts | 6° |
| 2026-05-06 13:40 | 1.49581 | 101.51463 | 24441 ft | 347 kts | 6° |
| 2026-05-06 13:40 | 1.51950 | 101.51625 | 24108 ft | 349 kts | 7° |
| 2026-05-06 13:40 | 1.54374 | 101.51791 | 23768 ft | 353 kts | 7° |
| 2026-05-06 13:41 | 1.56777 | 101.51956 | 23425 ft | 358 kts | 7° |
| 2026-05-06 13:41 | 1.59261 | 101.52126 | 23014 ft | 359 kts | 7° |
| 2026-05-06 13:41 | 1.61713 | 101.52292 | 22651 ft | 357 kts | 7° |
| 2026-05-06 13:41 | 1.64164 | 101.52458 | 22295 ft | 355 kts | 7° |
| 2026-05-06 13:42 | 1.66570 | 101.52621 | 21959 ft | 353 kts | 7° |
| 2026-05-06 13:42 | 1.69021 | 101.52787 | 21600 ft | 352 kts | 6° |
| 2026-05-06 13:42 | 1.71441 | 101.52951 | 21249 ft | 353 kts | 6° |
| 2026-05-06 13:42 | 1.73878 | 101.53117 | 20919 ft | 353 kts | 6° |
| 2026-05-06 13:43 | 1.76329 | 101.53284 | 20581 ft | 353 kts | 6° |
| 2026-05-06 13:43 | 1.78786 | 101.53451 | 20238 ft | 352 kts | 6° |
| 2026-05-06 13:43 | 1.81233 | 101.53617 | 19898 ft | 351 kts | 6° |
| 2026-05-06 13:43 | 1.83671 | 101.53783 | 19558 ft | 350 kts | 6° |
| 2026-05-06 13:44 | 1.86070 | 101.53945 | 19186 ft | 343 kts | 6° |
| 2026-05-06 13:44 | 1.88428 | 101.54105 | 18852 ft | 335 kts | 6° |
| 2026-05-06 13:44 | 1.90735 | 101.54261 | 18535 ft | 330 kts | 6° |
| 2026-05-06 13:44 | 1.93019 | 101.54416 | 18209 ft | 329 kts | 6° |
| 2026-05-06 13:45 | 1.95310 | 101.54573 | 17857 ft | 333 kts | 6° |
| 2026-05-06 13:45 | 1.99921 | 101.54888 | 17090 ft | 333 kts | 6° |
| 2026-05-06 13:45 | 2.02219 | 101.55044 | 16758 ft | 329 kts | 6° |
| 2026-05-06 13:46 | 2.04472 | 101.55196 | 16433 ft | 324 kts | 6° |
| 2026-05-06 13:46 | 2.06728 | 101.55350 | 16142 ft | 325 kts | 6° |
| 2026-05-06 13:46 | 2.08975 | 101.55503 | 15814 ft | 322 kts | 6° |
| 2026-05-06 13:46 | 2.11164 | 101.55652 | 15415 ft | 323 kts | 6° |
| 2026-05-06 13:47 | 2.13444 | 101.55808 | 14859 ft | 326 kts | 6° |
| 2026-05-06 13:47 | 2.15616 | 101.56268 | 14317 ft | 323 kts | 27° |
| 2026-05-06 13:47 | 2.17257 | 101.57420 | 13865 ft | 316 kts | 48° |
| 2026-05-06 13:47 | 2.18403 | 101.59160 | 13338 ft | 312 kts | 69° |
| 2026-05-06 13:48 | 2.18871 | 101.61224 | 12786 ft | 309 kts | 87° |
| 2026-05-06 13:48 | 2.18661 | 101.63248 | 12247 ft | 307 kts | 104° |
| 2026-05-06 13:48 | 2.18080 | 101.65278 | 11702 ft | 305 kts | 107° |
| 2026-05-06 13:48 | 2.17454 | 101.67289 | 11159 ft | 304 kts | 107° |
| 2026-05-06 13:49 | 2.16821 | 101.69305 | 10622 ft | 304 kts | 108° |
| 2026-05-06 13:49 | 2.16194 | 101.71318 | 10096 ft | 303 kts | 107° |
| 2026-05-06 13:49 | 2.15570 | 101.73346 | 9566 ft | 308 kts | 108° |
| 2026-05-06 13:49 | 2.14948 | 101.75384 | 8988 ft | 307 kts | 107° |
| 2026-05-06 13:50 | 2.14339 | 101.77390 | 8424 ft | 306 kts | 107° |
| 2026-05-06 13:50 | 2.13732 | 101.79398 | 8180 ft | 300 kts | 107° |
| 2026-05-06 13:50 | 2.13142 | 101.81350 | 7944 ft | 295 kts | 107° |
| 2026-05-06 13:50 | 2.12603 | 101.83138 | 7721 ft | 292 kts | 107° |
| 2026-05-06 13:51 | 2.12028 | 101.85043 | 7477 ft | 288 kts | 107° |
| 2026-05-06 13:51 | 2.11481 | 101.86857 | 7258 ft | 286 kts | 107° |
| 2026-05-06 13:51 | 2.10915 | 101.88753 | 7019 ft | 283 kts | 104° |
| 2026-05-06 13:51 | 2.10793 | 101.90582 | 6772 ft | 281 kts | 80° |
| 2026-05-06 13:52 | 2.11463 | 101.92278 | 6561 ft | 279 kts | 56° |
| 2026-05-06 13:52 | 2.12622 | 101.93805 | 6354 ft | 276 kts | 51° |
| 2026-05-06 13:52 | 2.13828 | 101.95269 | 6139 ft | 276 kts | 50° |
| 2026-05-06 13:52 | 2.15038 | 101.96721 | 6065 ft | 273 kts | 50° |
| 2026-05-06 13:53 | 2.16264 | 101.98173 | 6048 ft | 275 kts | 47° |
| 2026-05-06 13:53 | 2.17797 | 101.99243 | 5708 ft | 286 kts | 18° |
| 2026-05-06 13:53 | 2.19675 | 101.99545 | 5306 ft | 292 kts | 6° |
| 2026-05-06 13:53 | 2.21690 | 101.99797 | 4835 ft | 296 kts | 10° |
| 2026-05-06 13:54 | 2.23672 | 102.00190 | 4589 ft | 291 kts | 14° |
| 2026-05-06 13:54 | 2.25583 | 102.00682 | 4486 ft | 280 kts | 17° |
| 2026-05-06 13:54 | 2.27360 | 102.01208 | 4483 ft | 273 kts | 18° |
| 2026-05-06 13:54 | 2.29158 | 102.01775 | 4485 ft | 272 kts | 17° |
| 2026-05-06 13:55 | 2.30988 | 102.01909 | 4468 ft | 270 kts | 347° |
| 2026-05-06 13:55 | 2.32597 | 102.01042 | 4516 ft | 256 kts | 323° |
| 2026-05-06 13:55 | 2.33972 | 102.00021 | 4477 ft | 239 kts | 324° |
| 2026-05-06 13:55 | 2.35251 | 101.99097 | 4466 ft | 220 kts | 325° |
| 2026-05-06 13:56 | 2.36453 | 101.98240 | 4468 ft | 209 kts | 326° |
| 2026-05-06 13:56 | 2.37636 | 101.97404 | 4478 ft | 208 kts | 326° |
| 2026-05-06 13:56 | 2.38787 | 101.96597 | 4483 ft | 209 kts | 326° |
| 2026-05-06 13:56 | 2.39931 | 101.95798 | 4476 ft | 208 kts | 326° |
| 2026-05-06 13:57 | 2.41088 | 101.94992 | 4481 ft | 209 kts | 326° |
| 2026-05-06 13:57 | 2.42257 | 101.94181 | 4476 ft | 203 kts | 327° |
| 2026-05-06 13:57 | 2.43390 | 101.93395 | 4465 ft | 195 kts | 326° |
| 2026-05-06 13:57 | 2.44469 | 101.92647 | 4469 ft | 194 kts | 326° |
| 2026-05-06 13:58 | 2.45547 | 101.91901 | 4496 ft | 189 kts | 326° |
| 2026-05-06 13:58 | 2.46617 | 101.91162 | 4484 ft | 187 kts | 327° |
| 2026-05-06 13:58 | 2.47679 | 101.90427 | 4474 ft | 186 kts | 327° |
| 2026-05-06 13:58 | 2.48746 | 101.89696 | 4476 ft | 185 kts | 327° |
| 2026-05-06 13:59 | 2.49809 | 101.88984 | 4473 ft | 189 kts | 328° |
| 2026-05-06 13:59 | 2.50887 | 101.88263 | 4472 ft | 195 kts | 327° |
| 2026-05-06 13:59 | 2.51994 | 101.87521 | 4476 ft | 195 kts | 327° |
| 2026-05-06 13:59 | 2.53104 | 101.86777 | 4483 ft | 194 kts | 327° |
| 2026-05-06 14:00 | 2.54212 | 101.86034 | 4471 ft | 193 kts | 327° |
| 2026-05-06 14:00 | 2.54957 | 101.85536 | 4466 ft | 192 kts | 327° |
| 2026-05-06 14:00 | 2.56420 | 101.84556 | 4372 ft | 196 kts | 327° |
| 2026-05-06 14:00 | 2.57188 | 101.84041 | 4191 ft | 198 kts | 327° |
| 2026-05-06 14:01 | 2.58303 | 101.83293 | 3948 ft | 189 kts | 327° |
| 2026-05-06 14:01 | 2.59698 | 101.82358 | 3635 ft | 186 kts | 327° |
| 2026-05-06 14:01 | 2.60406 | 101.81883 | 3464 ft | 184 kts | 327° |
| 2026-05-06 14:01 | 2.61459 | 101.81176 | 3225 ft | 181 kts | 327° |
| 2026-05-06 14:02 | 2.62415 | 101.80535 | 3006 ft | 178 kts | 327° |
| 2026-05-06 14:02 | 2.63440 | 101.79847 | 2774 ft | 179 kts | 326° |
| 2026-05-06 14:02 | 2.64459 | 101.79164 | 2548 ft | 180 kts | 326° |
| 2026-05-06 14:02 | 2.65492 | 101.78471 | 2307 ft | 178 kts | 326° |
| 2026-05-06 14:03 | 2.66513 | 101.77786 | 2064 ft | 176 kts | 326° |
| 2026-05-06 14:03 | 2.67516 | 101.77114 | 1839 ft | 175 kts | 326° |
| 2026-05-06 14:03 | 2.68519 | 101.76443 | 1602 ft | 175 kts | 327° |
| 2026-05-06 14:03 | 2.69481 | 101.75796 | 1386 ft | 175 kts | 327° |
| 2026-05-06 14:04 | 2.70499 | 101.75112 | 1168 ft | 174 kts | 327° |
| 2026-05-06 14:04 | 2.71468 | 101.74464 | 922 ft | 164 kts | 327° |
| 2026-05-06 14:04 | 2.72362 | 101.73863 | 744 ft | 153 kts | 327° |
| 2026-05-06 14:04 | 2.73223 | 101.73287 | 527 ft | 149 kts | 328° |
| 2026-05-06 14:05 | 2.74075 | 101.72714 | 315 ft | 144 kts | 327° |
| 2026-05-06 14:05 | 2.74898 | 101.72162 | 144 ft | 145 kts | 328° |
| 2026-05-06 14:05 | 2.75710 | 101.71608 | 69 ft | 133 kts | 327° |
| 2026-05-06 14:05 | 2.76317 | 101.71210 | 65 ft | 53 kts | 325° |
| 2026-05-06 14:06 | 2.76508 | 101.71037 | 64 ft | 26 kts | 309° |
| 2026-05-06 14:06 | 2.76569 | 101.70932 | 62 ft | 7 kts | 296° |
| 2026-05-06 14:06 | 2.76569 | 101.70931 | 63 ft | 0 kts | 296° |
| 2026-05-06 14:09 | 2.76571 | 101.70927 | 58 ft | 2 kts | 296° |
| 2026-05-06 14:09 | 2.76578 | 101.70889 | 64 ft | 10 kts | 262° |
| 2026-05-06 14:09 | 2.76510 | 101.70858 | 61 ft | 16 kts | 156° |
| 2026-05-06 14:10 | 2.76403 | 101.70927 | 60 ft | 21 kts | 146° |
| 2026-05-06 14:10 | 2.76269 | 101.71017 | 63 ft | 26 kts | 146° |
| 2026-05-06 14:10 | 2.76115 | 101.71122 | 69 ft | 28 kts | 146° |
| 2026-05-06 14:10 | 2.75960 | 101.71224 | 68 ft | 12 kts | 154° |
| 2026-05-06 14:11 | 2.75884 | 101.71276 | 68 ft | 15 kts | 144° |
| 2026-05-06 14:11 | 2.75783 | 101.71341 | 71 ft | 20 kts | 148° |
| 2026-05-06 14:11 | 2.75657 | 101.71374 | 63 ft | 21 kts | 218° |
| 2026-05-06 14:11 | 2.75570 | 101.71253 | 72 ft | 22 kts | 236° |
| 2026-05-06 14:12 | 2.75477 | 101.71115 | 67 ft | 24 kts | 235° |
| 2026-05-06 14:12 | 2.75393 | 101.70989 | 72 ft | 20 kts | 237° |
| 2026-05-06 14:12 | 2.75312 | 101.70867 | 70 ft | 18 kts | 237° |
| 2026-05-06 14:12 | 2.75249 | 101.70778 | 70 ft | 13 kts | 242° |
| 2026-05-06 14:13 | 2.75218 | 101.70710 | 70 ft | 10 kts | 265° |
| 2026-05-06 14:13 | 2.75252 | 101.70670 | 72 ft | 7 kts | 326° |
| 2026-05-06 14:13 | 2.75269 | 101.70659 | 69 ft | 0 kts | 323° |